Time;durP1;ratioP1;P1;durP2;ratioP2;P2;SDS_P1;SDS_P2;PMS_P1;PMS_P2;Temp;Humidity;BMP_temperature;BMP_pressure;BME280_temperature;BME280_humidity;BME280_pressure;Samples;Min_cycle;Max_cycle;Signal;HPM_P1;HPM_P2
2023/08/27 00:01:14;;;;;;;14.23;7.87;;;27.10;67.90;;;;;;5025316;28;20187;-58
2023/08/27 00:03:41;;;;;;;14.93;7.23;;;27.10;68.20;;;;;;5019323;28;20619;-59
2023/08/27 00:06:09;;;;;;;18.03;7.77;;;27.00;68.40;;;;;;5026872;28;20199;-58
2023/08/27 00:08:36;;;;;;;15.43;7.93;;;27.00;68.60;;;;;;5019786;28;20215;-58
2023/08/27 00:11:04;;;;;;;18.73;8.43;;;26.90;68.90;;;;;;5018864;28;20219;-59
2023/08/27 00:13:31;;;;;;;19.00;8.13;;;26.90;69.20;;;;;;5025661;28;20191;-58
2023/08/27 00:15:59;;;;;;;21.37;8.07;;;26.80;69.60;;;;;;5025269;28;20927;-58
2023/08/27 00:18:26;;;;;;;16.67;8.97;;;26.70;69.90;;;;;;5018528;28;20219;-58
2023/08/27 00:20:54;;;;;;;27.03;8.70;;;26.70;70.30;;;;;;5023609;28;20192;-58
2023/08/27 00:23:21;;;;;;;14.80;8.20;;;26.70;70.70;;;;;;5022401;28;20202;-59
2023/08/27 00:25:48;;;;;;;11.13;7.10;;;26.60;70.80;;;;;;5024891;28;20746;-59
2023/08/27 00:28:15;;;;;;;13.73;7.37;;;26.50;70.90;;;;;;5019670;28;20609;-58
2023/08/27 00:30:42;;;;;;;13.23;8.13;;;26.50;71.00;;;;;;5023547;28;20207;-58
2023/08/27 00:33:09;;;;;;;18.77;8.87;;;26.50;71.10;;;;;;5029176;28;20210;-58
2023/08/27 00:35:37;;;;;;;13.73;8.50;;;26.50;71.30;;;;;;5025952;28;20268;-59
2023/08/27 00:38:06;;;;;;;16.60;7.93;;;26.40;71.40;;;;;;5022136;28;20220;-58
2023/08/27 00:40:34;;;;;;;16.83;8.50;;;26.40;71.70;;;;;;5028908;28;20290;-59
2023/08/27 00:43:02;;;;;;;16.30;8.97;;;26.40;71.40;;;;;;5019346;28;20214;-59
2023/08/27 00:45:30;;;;;;;21.13;9.27;;;26.30;71.30;;;;;;5022682;28;20237;-59
2023/08/27 00:47:57;;;;;;;13.17;8.50;;;26.20;71.60;;;;;;5025138;28;20693;-59
2023/08/27 00:50:25;;;;;;;18.70;7.27;;;26.20;72.00;;;;;;5030449;28;20207;-59
2023/08/27 00:52:53;;;;;;;17.53;8.57;;;26.20;72.10;;;;;;5024785;28;20647;-58
2023/08/27 00:55:21;;;;;;;11.97;7.90;;;26.10;72.20;;;;;;5040502;28;20233;-59
2023/08/27 00:57:49;;;;;;;22.20;7.73;;;26.10;72.30;;;;;;5020025;28;20215;-58
2023/08/27 01:00:18;;;;;;;14.47;8.00;;;26.10;72.50;;;;;;5024575;28;20222;-58
2023/08/27 01:02:46;;;;;;;15.00;8.73;;;26.10;72.60;;;;;;5025191;28;20640;-59
2023/08/27 01:05:14;;;;;;;16.73;8.80;;;26.10;72.60;;;;;;5027893;28;20305;-59
2023/08/27 01:07:57;;;;;;;15.13;7.30;;;26.10;72.40;;;;;;5023870;28;20203;-59
2023/08/27 01:10:40;;;;;;;13.10;8.63;;;26.00;72.40;;;;;;5022723;28;20203;-58
2023/08/27 01:13:20;;;;;;;18.33;8.93;;;26.00;72.60;;;;;;5026052;28;20524;-58
2023/08/27 01:15:56;;;;;;;16.93;8.40;;;25.90;72.60;;;;;;5022407;28;20254;-59
2023/08/27 01:18:25;;;;;;;19.83;7.80;;;26.00;72.70;;;;;;5022443;28;20218;-58
2023/08/27 01:20:52;;;;;;;16.70;7.10;;;25.90;72.60;;;;;;5029579;28;20217;-58
2023/08/27 01:23:19;;;;;;;14.03;7.97;;;25.90;72.50;;;;;;5029314;28;20645;-58
2023/08/27 01:25:50;;;;;;;15.80;8.43;;;25.90;72.60;;;;;;5026807;28;20206;-59
2023/08/27 01:28:30;;;;;;;12.97;7.63;;;25.80;73.20;;;;;;5020808;28;20200;-59
2023/08/27 01:31:08;;;;;;;11.83;7.37;;;25.80;72.60;;;;;;5022024;28;20196;-59
2023/08/27 01:33:36;;;;;;;13.67;7.17;;;25.80;72.70;;;;;;5020810;28;20211;-59
2023/08/27 01:36:04;;;;;;;11.87;8.03;;;25.80;72.60;;;;;;5019520;28;20226;-59
2023/08/27 01:38:31;;;;;;;15.57;7.13;;;25.80;72.40;;;;;;5034772;28;20688;-59
2023/08/27 01:40:59;;;;;;;16.63;7.47;;;25.90;72.30;;;;;;5031966;28;20202;-59
2023/08/27 01:43:28;;;;;;;23.83;7.47;;;25.90;72.10;;;;;;5019127;28;20199;-59
2023/08/27 01:45:55;;;;;;;15.33;7.77;;;25.80;72.00;;;;;;5016849;28;20200;-59
2023/08/27 01:48:22;;;;;;;15.33;8.97;;;25.90;72.40;;;;;;5015437;28;20230;-58
2023/08/27 01:50:49;;;;;;;9.47;7.70;;;25.90;72.70;;;;;;5030450;28;20207;-58
2023/08/27 01:53:16;;;;;;;10.13;7.90;;;25.90;73.00;;;;;;5019842;28;20207;-58
2023/08/27 01:55:43;;;;;;;13.60;7.23;;;25.80;72.90;;;;;;5021581;28;20639;-58
2023/08/27 01:58:11;;;;;;;11.63;7.77;;;25.80;73.00;;;;;;5035012;28;20221;-58
2023/08/27 02:00:38;;;;;;;17.37;7.50;;;25.80;73.10;;;;;;5032785;28;20253;-59
2023/08/27 02:03:06;;;;;;;16.90;8.67;;;25.80;73.00;;;;;;5029348;28;20689;-59
2023/08/27 02:05:33;;;;;;;12.10;7.73;;;25.90;72.90;;;;;;5020615;28;20209;-58
2023/08/27 02:08:00;;;;;;;16.83;8.30;;;25.80;72.60;;;;;;5031545;28;20218;-59
2023/08/27 02:10:27;;;;;;;11.13;7.90;;;25.80;72.80;;;;;;5021365;28;20215;-58
2023/08/27 02:12:54;;;;;;;10.53;8.13;;;25.80;73.00;;;;;;5026768;28;20218;-58
2023/08/27 02:15:21;;;;;;;17.77;8.10;;;25.70;73.10;;;;;;5029813;28;20361;-58
2023/08/27 02:17:48;;;;;;;17.17;8.23;;;25.60;73.20;;;;;;5025695;28;20219;-59
2023/08/27 02:20:15;;;;;;;12.90;8.60;;;25.60;73.50;;;;;;5023633;28;20226;-58
2023/08/27 02:22:42;;;;;;;10.93;8.23;;;25.50;73.80;;;;;;5032869;28;20214;-58
2023/08/27 02:25:11;;;;;;;21.23;8.60;;;25.50;74.00;;;;;;5040906;28;20204;-58
2023/08/27 02:27:38;;;;;;;10.93;8.10;;;25.50;74.00;;;;;;5026240;28;20188;-58
2023/08/27 02:30:06;;;;;;;11.20;8.20;;;25.40;74.20;;;;;;5028511;28;20231;-58
2023/08/27 02:32:35;;;;;;;23.30;8.87;;;25.40;74.20;;;;;;5031677;28;20211;-58
2023/08/27 02:35:02;;;;;;;19.57;8.57;;;25.40;74.20;;;;;;5028851;28;20207;-59
2023/08/27 02:37:29;;;;;;;13.67;8.77;;;25.40;74.60;;;;;;5027073;28;20188;-58
2023/08/27 02:39:56;;;;;;;14.60;7.87;;;25.40;74.90;;;;;;5024112;28;20211;-58
2023/08/27 02:42:23;;;;;;;11.10;8.03;;;25.30;75.10;;;;;;5028511;28;20203;-59
2023/08/27 02:44:50;;;;;;;14.67;8.47;;;25.40;75.40;;;;;;5025751;28;20543;-59
2023/08/27 02:47:17;;;;;;;16.23;8.30;;;25.30;75.60;;;;;;5040429;28;20211;-58
2023/08/27 02:49:43;;;;;;;10.20;8.37;;;25.40;76.50;;;;;;5033621;28;20219;-58
2023/08/27 02:52:10;;;;;;;17.53;8.57;;;25.30;76.10;;;;;;5020490;28;20539;-58
2023/08/27 02:54:37;;;;;;;12.27;8.40;;;25.30;76.40;;;;;;5021747;28;20560;-58
2023/08/27 02:57:04;;;;;;;11.77;8.73;;;25.30;76.60;;;;;;5032716;28;20910;-58
2023/08/27 02:59:32;;;;;;;12.17;8.30;;;25.30;76.60;;;;;;5033568;28;20653;-59
2023/08/27 03:01:59;;;;;;;11.30;8.03;;;25.20;76.50;;;;;;5022910;28;20244;-59
2023/08/27 03:04:26;;;;;;;11.23;7.77;;;25.20;76.30;;;;;;5023286;28;20234;-59
2023/08/27 03:06:53;;;;;;;15.90;8.10;;;25.20;76.10;;;;;;5027913;28;20215;-58
2023/08/27 03:09:20;;;;;;;12.37;8.00;;;25.20;76.30;;;;;;5030743;28;20209;-58
2023/08/27 03:11:47;;;;;;;16.47;8.27;;;25.20;76.40;;;;;;5023609;28;20658;-58
2023/08/27 03:14:14;;;;;;;18.10;8.13;;;25.20;76.60;;;;;;5033374;28;20256;-58
2023/08/27 03:16:41;;;;;;;9.57;7.20;;;25.20;76.80;;;;;;5043771;28;20210;-58
2023/08/27 03:19:08;;;;;;;14.30;8.43;;;25.20;77.20;;;;;;5033013;28;20249;-59
2023/08/27 03:21:35;;;;;;;17.73;9.23;;;25.20;77.30;;;;;;5026185;28;20632;-58
2023/08/27 03:24:03;;;;;;;13.53;8.23;;;25.20;77.30;;;;;;5020836;28;20650;-58
2023/08/27 03:26:30;;;;;;;11.93;8.33;;;25.20;77.40;;;;;;5021102;28;20199;-58
2023/08/27 03:28:57;;;;;;;11.90;8.13;;;25.10;77.30;;;;;;5029981;28;20195;-58
2023/08/27 03:31:24;;;;;;;14.87;8.30;;;25.10;77.40;;;;;;5027841;28;20225;-59
2023/08/27 03:33:51;;;;;;;9.40;8.37;;;25.10;77.70;;;;;;5025840;28;20666;-59
2023/08/27 03:36:19;;;;;;;14.67;8.73;;;25.00;78.00;;;;;;5028161;28;20204;-58
2023/08/27 03:38:46;;;;;;;18.97;7.87;;;25.00;78.30;;;;;;5021806;28;20582;-58
2023/08/27 03:41:13;;;;;;;16.83;8.57;;;25.00;78.50;;;;;;5028872;28;20206;-58
2023/08/27 03:43:40;;;;;;;15.90;8.20;;;25.00;78.70;;;;;;5021787;28;20213;-59
2023/08/27 03:46:07;;;;;;;15.27;9.23;;;25.00;78.80;;;;;;5032062;28;20219;-58
2023/08/27 03:48:34;;;;;;;14.00;9.43;;;25.00;78.90;;;;;;5022182;28;20277;-58
2023/08/27 03:51:01;;;;;;;12.63;8.10;;;25.10;79.30;;;;;;5029523;28;20638;-59
2023/08/27 03:53:29;;;;;;;14.13;8.60;;;25.10;79.30;;;;;;5017786;28;20203;-58
2023/08/27 03:55:56;;;;;;;17.33;9.00;;;25.10;79.10;;;;;;5032550;28;20609;-59
2023/08/27 03:58:23;;;;;;;15.40;8.67;;;25.00;79.40;;;;;;5024453;28;20537;-59
2023/08/27 04:00:50;;;;;;;18.07;8.97;;;25.00;79.80;;;;;;5024637;28;20213;-59
2023/08/27 04:03:17;;;;;;;14.00;9.20;;;25.00;80.10;;;;;;5023529;28;20202;-59
2023/08/27 04:05:48;;;;;;;12.00;9.03;;;25.00;80.10;;;;;;5022529;28;20641;-59
2023/08/27 04:08:16;;;;;;;11.10;9.07;;;24.90;80.20;;;;;;5023044;28;20366;-59
2023/08/27 04:10:54;;;;;;;14.57;8.97;;;25.00;80.50;;;;;;5037730;28;20206;-58
2023/08/27 04:13:21;;;;;;;11.43;9.07;;;25.00;80.80;;;;;;5020070;28;20587;-59
2023/08/27 04:16:07;;;;;;;10.07;9.07;;;24.90;80.60;;;;;;5037577;28;20249;-59
2023/08/27 04:18:34;;;;;;;12.90;8.37;;;24.90;80.80;;;;;;5020917;28;20285;-59
2023/08/27 04:21:03;;;;;;;13.63;9.20;;;24.90;80.80;;;;;;5020641;28;20548;-59
2023/08/27 04:23:30;;;;;;;15.10;8.37;;;24.90;80.90;;;;;;5034790;28;20258;-59
2023/08/27 04:25:57;;;;;;;12.53;8.77;;;24.90;81.00;;;;;;5025641;28;20201;-59
2023/08/27 04:28:24;;;;;;;11.70;9.00;;;24.90;81.00;;;;;;5020448;28;20204;-59
2023/08/27 04:30:52;;;;;;;13.03;8.40;;;24.90;81.00;;;;;;5021788;28;20216;-59
2023/08/27 04:33:19;;;;;;;12.50;8.97;;;24.90;81.60;;;;;;5028607;28;20211;-59
2023/08/27 04:35:49;;;;;;;11.33;8.40;;;24.90;80.80;;;;;;5016989;28;20333;-59
2023/08/27 04:38:16;;;;;;;11.07;8.47;;;24.90;81.00;;;;;;5018290;28;20272;-59
2023/08/27 04:40:43;;;;;;;13.63;8.40;;;24.90;81.00;;;;;;5017826;28;20210;-59
2023/08/27 04:43:10;;;;;;;13.03;9.33;;;24.90;80.70;;;;;;5022956;28;20604;-59
2023/08/27 04:45:37;;;;;;;14.13;9.13;;;24.90;80.20;;;;;;5030767;28;20291;-59
2023/08/27 04:48:05;;;;;;;13.80;8.43;;;25.00;79.70;;;;;;5027589;28;20215;-59
2023/08/27 04:50:32;;;;;;;16.57;9.23;;;25.00;79.40;;;;;;5027480;28;20669;-59
2023/08/27 04:52:59;;;;;;;17.53;8.70;;;25.00;79.70;;;;;;5018404;28;20211;-59
2023/08/27 04:55:26;;;;;;;20.17;8.70;;;25.00;78.80;;;;;;5016064;28;20216;-59
2023/08/27 04:57:53;;;;;;;11.93;9.03;;;25.00;78.90;;;;;;5036576;28;20215;-59
2023/08/27 05:00:20;;;;;;;10.10;8.80;;;25.10;79.30;;;;;;5027842;28;20223;-59
2023/08/27 05:02:48;;;;;;;15.93;8.97;;;25.10;79.70;;;;;;5036290;28;20217;-59
2023/08/27 05:05:16;;;;;;;17.43;9.50;;;25.10;79.70;;;;;;5017996;28;20199;-59
2023/08/27 05:07:43;;;;;;;11.30;8.43;;;25.20;79.60;;;;;;5017674;28;20203;-59
2023/08/27 05:10:10;;;;;;;15.17;9.10;;;25.20;79.40;;;;;;5019363;28;20292;-59
2023/08/27 05:12:38;;;;;;;11.77;8.40;;;25.30;79.20;;;;;;5037446;28;20207;-59
2023/08/27 05:15:07;;;;;;;15.13;8.53;;;25.30;79.20;;;;;;5027352;28;20700;-59
2023/08/27 05:17:34;;;;;;;15.60;7.97;;;25.40;79.10;;;;;;5029251;28;20246;-59
2023/08/27 05:20:04;;;;;;;14.33;8.10;;;25.40;78.60;;;;;;5023611;28;20221;-59
2023/08/27 05:22:31;;;;;;;13.97;8.00;;;25.30;78.30;;;;;;5029962;28;20662;-59
2023/08/27 05:24:58;;;;;;;18.50;10.17;;;25.30;78.50;;;;;;5024560;28;20199;-59
2023/08/27 05:27:26;;;;;;;19.67;10.10;;;25.40;78.90;;;;;;5030528;28;20246;-59
2023/08/27 05:29:53;;;;;;;13.40;7.77;;;25.40;79.00;;;;;;5020662;28;20290;-59
2023/08/27 05:32:20;;;;;;;9.97;7.87;;;25.50;78.80;;;;;;5025466;28;20197;-59
2023/08/27 05:34:47;;;;;;;14.13;7.87;;;25.60;78.10;;;;;;5027150;28;20209;-59
2023/08/27 05:37:14;;;;;;;11.47;7.50;;;25.70;76.70;;;;;;5031228;28;20291;-59
2023/08/27 05:39:41;;;;;;;13.40;7.93;;;25.80;76.10;;;;;;5026795;28;20237;-60
2023/08/27 05:42:08;;;;;;;13.03;8.20;;;25.90;76.20;;;;;;5034553;28;20267;-60
2023/08/27 05:44:35;;;;;;;11.53;7.40;;;26.00;75.80;;;;;;5022456;28;20190;-59
2023/08/27 05:47:04;;;;;;;12.53;7.17;;;26.10;75.60;;;;;;5027806;28;20206;-60
2023/08/27 05:49:31;;;;;;;12.47;8.23;;;26.10;75.80;;;;;;5031132;28;20293;-59
2023/08/27 05:51:59;;;;;;;9.43;7.33;;;26.10;75.90;;;;;;5029746;28;20214;-59
2023/08/27 05:54:26;;;;;;;13.27;7.17;;;26.20;76.20;;;;;;5046435;28;20293;-59
2023/08/27 05:56:56;;;;;;;16.20;6.97;;;26.30;76.20;;;;;;5031898;28;20214;-60
2023/08/27 05:59:23;;;;;;;10.37;6.87;;;26.40;76.20;;;;;;5020944;28;20242;-60
2023/08/27 06:01:51;;;;;;;11.30;7.90;;;26.50;75.80;;;;;;5023649;28;20299;-60
2023/08/27 06:04:18;;;;;;;13.70;6.87;;;26.60;75.10;;;;;;5038539;28;20301;-60
2023/08/27 06:06:46;;;;;;;14.27;7.13;;;26.60;74.60;;;;;;5027673;28;20211;-60
2023/08/27 06:09:13;;;;;;;9.00;7.30;;;26.80;74.70;;;;;;5030037;28;20230;-59
2023/08/27 06:11:40;;;;;;;15.53;7.30;;;26.80;74.10;;;;;;5018847;28;20221;-59
2023/08/27 06:14:07;;;;;;;11.13;7.47;;;26.80;74.30;;;;;;5024104;28;20217;-60
2023/08/27 06:16:34;;;;;;;13.40;8.33;;;26.80;74.30;;;;;;5018027;28;20270;-59
2023/08/27 06:19:02;;;;;;;14.57;8.33;;;26.90;74.20;;;;;;5030855;28;20222;-59
2023/08/27 06:21:29;;;;;;;15.50;8.67;;;26.90;74.10;;;;;;5021575;28;20192;-59
2023/08/27 06:23:56;;;;;;;14.63;8.60;;;27.00;74.10;;;;;;5019479;28;20283;-59
2023/08/27 06:26:23;;;;;;;20.10;10.77;;;27.00;74.20;;;;;;5030259;28;20282;-59
2023/08/27 06:28:50;;;;;;;12.90;9.13;;;27.00;74.30;;;;;;5020927;28;20298;-59
2023/08/27 06:31:18;;;;;;;15.40;8.83;;;27.00;74.70;;;;;;5024763;28;20203;-60
2023/08/27 06:33:46;;;;;;;19.97;9.47;;;27.00;75.10;;;;;;5031265;28;20204;-60
2023/08/27 06:36:13;;;;;;;17.50;9.80;;;27.10;75.20;;;;;;5030269;28;20986;-59
2023/08/27 06:38:41;;;;;;;14.97;8.57;;;27.10;75.10;;;;;;5026724;28;20687;-59
2023/08/27 06:41:10;;;;;;;15.50;10.00;;;27.10;75.10;;;;;;5030082;28;20219;-60
2023/08/27 06:43:37;;;;;;;14.47;9.00;;;27.20;75.20;;;;;;5019683;28;20297;-60
2023/08/27 06:46:08;;;;;;;20.23;9.57;;;27.20;75.00;;;;;;5023924;28;20229;-60
2023/08/27 06:48:35;;;;;;;17.97;9.77;;;27.30;75.20;;;;;;5020341;28;20214;-60
2023/08/27 06:51:02;;;;;;;14.93;9.90;;;27.30;75.10;;;;;;5040257;28;20206;-59
2023/08/27 06:53:30;;;;;;;17.23;9.63;;;27.30;74.70;;;;;;5028251;28;20315;-60
2023/08/27 06:55:58;;;;;;;16.30;9.20;;;27.30;74.80;;;;;;5024967;28;20233;-60
2023/08/27 06:58:25;;;;;;;12.80;9.43;;;27.40;75.10;;;;;;5024468;28;20249;-60
2023/08/27 07:00:52;;;;;;;14.27;8.70;;;27.50;75.20;;;;;;5020837;28;20218;-60
2023/08/27 07:03:19;;;;;;;14.87;9.33;;;27.60;74.90;;;;;;5028473;28;20633;-60
2023/08/27 07:05:46;;;;;;;13.43;8.03;;;27.70;73.60;;;;;;5039314;28;20251;-60
2023/08/27 07:08:14;;;;;;;11.67;8.60;;;27.70;73.80;;;;;;5011796;28;20223;-59
2023/08/27 07:10:41;;;;;;;15.37;8.60;;;27.80;74.10;;;;;;5018756;28;20300;-60
2023/08/27 07:13:08;;;;;;;11.73;8.27;;;27.80;73.90;;;;;;5032327;28;20214;-60
2023/08/27 07:15:35;;;;;;;11.43;8.63;;;27.90;73.60;;;;;;5022373;28;20239;-60
2023/08/27 07:18:02;;;;;;;10.87;8.13;;;28.00;73.10;;;;;;5024161;28;20203;-60
2023/08/27 07:20:29;;;;;;;11.43;8.00;;;28.10;73.20;;;;;;5027869;28;20307;-60
2023/08/27 07:22:56;;;;;;;13.47;7.90;;;28.20;73.20;;;;;;5028090;28;20221;-60
2023/08/27 07:25:24;;;;;;;14.93;8.70;;;28.30;73.00;;;;;;5025419;28;20207;-60
2023/08/27 07:27:51;;;;;;;11.63;8.30;;;28.50;73.10;;;;;;5022599;28;20200;-60
2023/08/27 07:30:18;;;;;;;11.20;6.67;;;28.60;71.70;;;;;;5023415;28;20218;-60
2023/08/27 07:32:45;;;;;;;13.03;7.63;;;28.70;69.90;;;;;;5021747;28;20258;-60
2023/08/27 07:35:12;;;;;;;9.27;7.60;;;28.90;67.80;;;;;;5024080;28;20621;-60
2023/08/27 07:37:39;;;;;;;10.53;7.30;;;28.90;67.20;;;;;;5032694;28;20203;-60
2023/08/27 07:40:09;;;;;;;15.77;8.03;;;29.00;67.50;;;;;;5017797;28;20215;-60
2023/08/27 07:42:37;;;;;;;9.77;6.93;;;29.20;67.70;;;;;;5037868;28;20195;-60
2023/08/27 07:45:14;;;;;;;13.90;8.20;;;29.30;67.10;;;;;;5026783;28;20199;-60
2023/08/27 07:48:01;;;;;;;14.10;7.90;;;29.40;66.90;;;;;;5017312;28;20289;-60
2023/08/27 07:50:39;;;;;;;18.00;8.93;;;29.60;67.10;;;;;;5020870;28;20258;-60
2023/08/27 07:53:06;;;;;;;12.03;7.63;;;29.80;67.20;;;;;;5016569;28;20208;-60
2023/08/27 07:55:35;;;;;;;14.60;7.73;;;30.10;67.20;;;;;;5027393;28;20212;-60
2023/08/27 07:58:05;;;;;;;16.80;7.60;;;30.20;66.10;;;;;;5020980;28;20712;-60
2023/08/27 08:00:32;;;;;;;14.40;7.23;;;30.40;65.70;;;;;;5029031;28;20215;-60
2023/08/27 08:02:59;;;;;;;11.43;7.43;;;30.60;65.50;;;;;;5027120;28;20693;-60
2023/08/27 08:05:26;;;;;;;18.63;9.63;;;30.80;65.60;;;;;;5023472;28;20227;-59
2023/08/27 08:07:54;;;;;;;11.03;6.83;;;31.20;64.50;;;;;;5027761;28;20199;-60
2023/08/27 08:10:21;;;;;;;16.17;7.73;;;31.50;63.10;;;;;;5020409;28;20200;-59
2023/08/27 08:12:49;;;;;;;8.33;7.40;;;31.80;61.50;;;;;;5024789;28;20210;-59
2023/08/27 08:15:16;;;;;;;14.33;10.07;;;32.10;60.60;;;;;;5026636;28;20231;-59
2023/08/27 08:17:44;;;;;;;39.13;17.67;;;32.20;59.70;;;;;;5022820;28;20590;-60
2023/08/27 08:20:13;;;;;;;17.20;7.87;;;32.30;59.70;;;;;;5022334;28;20298;-60
2023/08/27 08:22:41;;;;;;;13.77;7.30;;;32.30;59.10;;;;;;5025840;28;20377;-60
2023/08/27 08:25:08;;;;;;;10.73;7.13;;;32.30;59.10;;;;;;5025283;28;20199;-60
2023/08/27 08:27:35;;;;;;;24.60;9.17;;;32.20;58.30;;;;;;5020679;28;20204;-60
2023/08/27 08:30:04;;;;;;;13.33;6.50;;;32.10;57.90;;;;;;5024841;28;20549;-60
2023/08/27 08:32:31;;;;;;;9.13;6.13;;;32.10;57.80;;;;;;5027082;28;20199;-60
2023/08/27 08:34:58;;;;;;;12.27;7.43;;;32.00;57.70;;;;;;5018469;28;20277;-60
2023/08/27 08:37:26;;;;;;;15.10;7.00;;;32.00;57.60;;;;;;5024749;28;20266;-60
2023/08/27 08:39:53;;;;;;;8.17;6.13;;;31.90;57.60;;;;;;5024110;28;20223;-60
2023/08/27 08:42:32;;;;;;;8.87;6.07;;;31.90;57.40;;;;;;5024002;28;20752;-60
2023/08/27 08:45:13;;;;;;;16.03;7.30;;;31.80;57.40;;;;;;5022961;28;20214;-60
2023/08/27 08:47:43;;;;;;;18.87;6.30;;;31.80;57.20;;;;;;5026719;28;20285;-60
2023/08/27 08:50:13;;;;;;;9.23;6.83;;;31.70;57.40;;;;;;5020731;28;20234;-59
2023/08/27 08:52:45;;;;;;;8.20;6.40;;;31.70;57.80;;;;;;5021048;28;20196;-60
2023/08/27 08:55:15;;;;;;;9.87;6.30;;;31.70;57.20;;;;;;5022160;28;20286;-59
2023/08/27 08:58:10;;;;;;;10.20;6.40;;;31.70;56.70;;;;;;5026687;28;20275;-59
2023/08/27 09:00:38;;;;;;;13.30;6.80;;;31.80;56.70;;;;;;5020427;28;20207;-60
2023/08/27 09:03:05;;;;;;;11.70;6.40;;;31.80;56.10;;;;;;5016539;28;20287;-59
2023/08/27 09:05:34;;;;;;;10.23;6.60;;;31.80;56.00;;;;;;5019026;28;20206;-59
2023/08/27 09:08:04;;;;;;;10.97;6.63;;;31.80;55.90;;;;;;5019261;28;20203;-59
2023/08/27 09:10:31;;;;;;;7.90;6.40;;;31.80;55.50;;;;;;5015426;28;20203;-60
2023/08/27 09:13:02;;;;;;;9.90;5.90;;;31.80;55.10;;;;;;5024567;28;20222;-60
2023/08/27 09:15:29;;;;;;;7.70;6.00;;;31.80;54.90;;;;;;5016389;28;20702;-60
2023/08/27 09:17:56;;;;;;;10.07;6.77;;;31.80;55.60;;;;;;5021633;28;20295;-60
2023/08/27 09:20:25;;;;;;;9.63;6.60;;;31.80;55.60;;;;;;5024266;28;20608;-60
2023/08/27 09:22:52;;;;;;;9.90;6.30;;;31.70;55.40;;;;;;5018232;28;20230;-60
2023/08/27 09:25:20;;;;;;;7.63;5.87;;;31.70;55.60;;;;;;5020432;28;20629;-60
2023/08/27 09:27:47;;;;;;;12.53;6.40;;;31.70;55.20;;;;;;5020488;28;20196;-60
2023/08/27 09:30:14;;;;;;;9.07;6.23;;;31.70;55.70;;;;;;5019239;28;20207;-60
2023/08/27 09:32:45;;;;;;;8.77;6.03;;;31.70;55.60;;;;;;5021829;28;20202;-60
2023/08/27 09:35:12;;;;;;;6.30;5.80;;;31.70;55.30;;;;;;5016377;28;20199;-60
2023/08/27 09:37:42;;;;;;;11.50;5.93;;;31.60;55.20;;;;;;5019294;28;20204;-60
2023/08/27 09:40:11;;;;;;;9.03;6.03;;;31.60;54.40;;;;;;5019378;28;20262;-60
2023/08/27 09:42:38;;;;;;;7.33;5.93;;;31.50;54.70;;;;;;5023406;28;20192;-60
2023/08/27 09:45:06;;;;;;;10.80;6.77;;;31.40;55.20;;;;;;5027354;28;20203;-59
2023/08/27 09:47:36;;;;;;;10.07;6.33;;;31.30;56.00;;;;;;5021741;28;20212;-59
2023/08/27 09:50:06;;;;;;;7.03;6.30;;;31.20;55.80;;;;;;5023712;28;20638;-59
2023/08/27 09:52:33;;;;;;;7.53;6.30;;;31.20;55.40;;;;;;5025452;28;20278;-59
2023/08/27 09:55:00;;;;;;;7.17;5.90;;;31.20;55.70;;;;;;5021269;28;20207;-59
2023/08/27 09:57:30;;;;;;;9.97;6.07;;;31.10;54.80;;;;;;5021158;28;20552;-58
2023/08/27 09:59:57;;;;;;;8.13;6.93;;;31.10;55.00;;;;;;5020534;28;20207;-59
2023/08/27 10:02:24;;;;;;;12.23;5.90;;;31.10;56.20;;;;;;5021465;28;20219;-59
2023/08/27 10:04:56;;;;;;;7.17;5.60;;;31.20;57.10;;;;;;5022294;28;20227;-59
2023/08/27 10:07:23;;;;;;;7.13;6.43;;;31.20;57.40;;;;;;5017309;28;20196;-59
2023/08/27 10:09:52;;;;;;;9.73;6.07;;;31.30;57.60;;;;;;5023532;28;20199;-58
2023/08/27 10:12:20;;;;;;;8.10;6.33;;;31.30;57.40;;;;;;5021981;28;20212;-59
2023/08/27 10:14:47;;;;;;;7.77;6.63;;;31.30;57.30;;;;;;5021901;28;20258;-59
2023/08/27 10:17:15;;;;;;;12.43;6.43;;;31.40;57.00;;;;;;5026346;28;20212;-59
2023/08/27 10:19:43;;;;;;;8.50;6.47;;;31.40;56.60;;;;;;5024178;28;20210;-59
2023/08/27 10:22:11;;;;;;;6.63;6.03;;;31.50;56.50;;;;;;5026750;28;20210;-59
2023/08/27 10:24:39;;;;;;;7.87;5.60;;;31.50;56.70;;;;;;5023425;28;20697;-59
2023/08/27 10:27:06;;;;;;;9.43;6.40;;;31.50;56.90;;;;;;5022981;28;20203;-59
2023/08/27 10:29:34;;;;;;;13.37;6.40;;;31.50;57.00;;;;;;5025294;28;20211;-59
2023/08/27 10:32:02;;;;;;;9.60;6.37;;;31.50;56.80;;;;;;5023888;28;20199;-59
2023/08/27 10:34:30;;;;;;;9.63;6.03;;;31.60;56.20;;;;;;5026832;28;20223;-59
2023/08/27 10:37:06;;;;;;;9.80;6.13;;;31.60;56.30;;;;;;5023255;28;20489;-59
2023/08/27 10:39:36;;;;;;;9.73;6.53;;;31.60;56.40;;;;;;5028963;28;20199;-59
2023/08/27 10:42:04;;;;;;;7.83;6.63;;;31.70;56.60;;;;;;5025143;28;20290;-59
2023/08/27 10:44:32;;;;;;;7.83;5.87;;;31.80;56.50;;;;;;5023092;28;20200;-59
2023/08/27 10:47:14;;;;;;;10.63;6.60;;;31.90;57.10;;;;;;5022268;28;20245;-59
2023/08/27 10:49:45;;;;;;;10.23;6.97;;;32.00;56.10;;;;;;5027139;28;20192;-59
2023/08/27 10:52:26;;;;;;;10.40;6.33;;;32.10;55.50;;;;;;5016641;28;20218;-59
2023/08/27 10:55:00;;;;;;;6.63;6.03;;;32.30;55.60;;;;;;5020444;28;20250;-59
2023/08/27 10:57:27;;;;;;;9.77;6.37;;;32.30;55.20;;;;;;5021555;28;20229;-59
2023/08/27 11:00:10;;;;;;;12.97;6.27;;;32.40;55.70;;;;;;5021180;28;20221;-58
2023/08/27 11:02:59;;;;;;;7.07;5.93;;;32.40;54.70;;;;;;5021987;28;20316;-59
2023/08/27 11:05:29;;;;;;;11.00;6.13;;;32.50;54.40;;;;;;5027342;28;20199;-59
2023/08/27 11:07:59;;;;;;;10.77;6.30;;;32.50;54.80;;;;;;5028358;28;20218;-59
2023/08/27 11:10:31;;;;;;;8.67;6.57;;;32.50;54.00;;;;;;5021559;28;20548;-59
2023/08/27 11:12:59;;;;;;;9.57;6.37;;;32.50;54.10;;;;;;5029119;28;20629;-59
2023/08/27 11:15:31;;;;;;;10.17;6.07;;;32.50;54.20;;;;;;5020368;28;20235;-59
2023/08/27 11:18:02;;;;;;;6.10;5.57;;;32.50;54.50;;;;;;5024741;28;20214;-59
2023/08/27 11:20:30;;;;;;;7.17;5.97;;;32.50;54.00;;;;;;5019386;28;20215;-59
2023/08/27 11:22:59;;;;;;;6.67;6.03;;;32.50;54.00;;;;;;5020349;28;20200;-59
2023/08/27 11:25:30;;;;;;;10.93;6.70;;;32.50;54.50;;;;;;5025259;28;20208;-59
2023/08/27 11:27:59;;;;;;;7.87;6.23;;;32.50;55.00;;;;;;5024964;28;20295;-59
2023/08/27 11:30:27;;;;;;;7.23;6.20;;;32.50;54.30;;;;;;5022610;28;20278;-59
2023/08/27 11:32:55;;;;;;;7.67;6.90;;;32.50;54.60;;;;;;5025012;28;20591;-59
2023/08/27 11:35:23;;;;;;;7.73;7.03;;;32.50;54.40;;;;;;5026091;28;20231;-59
2023/08/27 11:37:51;;;;;;;6.53;6.03;;;32.50;54.40;;;;;;5024431;28;20199;-59
2023/08/27 11:40:22;;;;;;;10.03;6.97;;;32.60;54.80;;;;;;5022154;28;20215;-59
2023/08/27 11:42:54;;;;;;;9.03;6.63;;;32.60;54.50;;;;;;5025618;28;20649;-59
2023/08/27 11:45:34;;;;;;;11.73;6.67;;;32.50;54.00;;;;;;5019859;28;20589;-59
2023/08/27 11:48:03;;;;;;;9.07;6.30;;;32.60;54.10;;;;;;5025264;28;20195;-59
2023/08/27 11:50:38;;;;;;;7.33;6.53;;;32.60;54.20;;;;;;5025190;28;20200;-59
2023/08/27 11:53:05;;;;;;;9.20;6.23;;;32.70;54.70;;;;;;5022584;28;20207;-59
2023/08/27 11:55:32;;;;;;;9.60;6.70;;;32.70;54.60;;;;;;5026391;28;20545;-59
2023/08/27 11:58:00;;;;;;;9.13;6.67;;;32.90;54.70;;;;;;5022801;28;20624;-59
2023/08/27 12:00:30;;;;;;;8.50;6.47;;;33.00;54.30;;;;;;5024818;28;20216;-59
2023/08/27 12:02:58;;;;;;;18.63;6.47;;;33.10;53.40;;;;;;5020856;28;20688;-59
2023/08/27 12:05:27;;;;;;;6.43;5.93;;;33.10;53.30;;;;;;5023547;28;20203;-59
2023/08/27 12:07:54;;;;;;;8.83;7.60;;;33.10;53.00;;;;;;5021095;28;20199;-59
2023/08/27 12:10:23;;;;;;;10.00;6.93;;;33.10;53.20;;;;;;5022225;28;20651;-59
2023/08/27 12:12:50;;;;;;;11.43;6.90;;;33.10;52.80;;;;;;5021128;28;20203;-59
2023/08/27 12:15:17;;;;;;;14.37;7.83;;;33.00;53.00;;;;;;5021154;28;20709;-59
2023/08/27 12:17:47;;;;;;;10.77;6.70;;;33.00;52.80;;;;;;5024027;28;20294;-59
2023/08/27 12:20:16;;;;;;;8.33;6.77;;;33.00;53.40;;;;;;5019808;28;20216;-59
2023/08/27 12:22:47;;;;;;;9.40;5.80;;;33.00;52.70;;;;;;5019685;28;20188;-59
2023/08/27 12:25:15;;;;;;;11.80;7.10;;;33.00;52.10;;;;;;5021145;28;20618;-59
2023/08/27 12:27:44;;;;;;;10.70;6.53;;;32.90;51.90;;;;;;5021038;28;20202;-59
2023/08/27 12:30:12;;;;;;;7.90;6.17;;;32.90;52.40;;;;;;5024661;28;20644;-59
2023/08/27 12:32:39;;;;;;;7.60;6.40;;;32.90;52.70;;;;;;5029475;28;20639;-59
2023/08/27 12:35:06;;;;;;;6.13;5.63;;;32.90;52.50;;;;;;5018314;28;20227;-59
2023/08/27 12:37:34;;;;;;;10.00;6.00;;;32.90;52.00;;;;;;5021514;28;20202;-59
2023/08/27 12:40:01;;;;;;;7.30;6.10;;;32.90;52.30;;;;;;5022721;28;20219;-59
2023/08/27 12:42:28;;;;;;;10.00;6.47;;;32.80;52.50;;;;;;5021354;28;20210;-59
2023/08/27 12:44:55;;;;;;;7.43;6.63;;;32.80;52.60;;;;;;5019534;28;20200;-59